Time;durP1;ratioP1;P1;durP2;ratioP2;P2;SDS_P1;SDS_P2;PMS_P1;PMS_P2;Temp;Humidity;BMP_temperature;BMP_pressure;BME280_temperature;BME280_humidity;BME280_pressure;Samples;Min_cycle;Max_cycle;Signal;HPM_P1;HPM_P2
2022/04/01 00:02:12;;;;;;;53.33;26.02;;;5.10;91.70;;;;;;4956087;29;20106;-73
2022/04/01 00:04:39;;;;;;;49.08;24.98;;;5.20;91.30;;;;;;4955924;29;20491;-72
2022/04/01 00:07:05;;;;;;;51.45;23.95;;;5.20;91.00;;;;;;4958161;29;20027;-71
2022/04/01 00:09:30;;;;;;;47.58;24.27;;;5.30;90.90;;;;;;4959270;29;20054;-70
2022/04/01 00:11:56;;;;;;;48.17;24.48;;;5.40;90.40;;;;;;4956386;29;20035;-70
2022/04/01 00:14:21;;;;;;;44.05;23.70;;;5.40;90.30;;;;;;4955877;29;20038;-71
2022/04/01 00:16:47;;;;;;;41.50;22.83;;;5.40;89.80;;;;;;4955600;29;20441;-72
2022/04/01 00:19:13;;;;;;;35.85;20.17;;;5.50;89.20;;;;;;4955745;29;20481;-72
2022/04/01 00:21:39;;;;;;;41.25;21.75;;;5.50;89.20;;;;;;4955626;29;20015;-71
2022/04/01 00:24:06;;;;;;;41.80;23.35;;;5.50;89.10;;;;;;4955940;29;20425;-71
2022/04/01 00:26:31;;;;;;;45.70;24.10;;;5.50;89.60;;;;;;4955524;29;20027;-71
2022/04/01 00:28:57;;;;;;;41.92;23.70;;;5.40;89.60;;;;;;4955759;29;20083;-70
2022/04/01 00:31:22;;;;;;;42.47;22.52;;;5.50;90.00;;;;;;4955415;29;20544;-70
2022/04/01 00:34:15;;;;;;;37.78;21.52;;;5.50;89.50;;;;;;4955360;29;20110;-70
2022/04/01 00:36:34;;;;;;;41.45;21.67;;;5.60;89.40;;;;;;4954923;28;20027;-71
2022/04/01 00:39:00;;;;;;;40.80;22.25;;;5.60;89.00;;;;;;4955342;29;20114;-70
2022/04/01 00:41:25;;;;;;;38.63;22.60;;;5.60;88.80;;;;;;4938033;29;20534;-75
2022/04/01 00:44:20;;;;;;;38.50;22.20;;;5.60;89.00;;;;;;4955374;29;20027;-70
2022/04/01 00:46:56;;;;;;;36.28;22.08;;;5.70;88.50;;;;;;4955244;29;20031;-71
2022/04/01 00:49:22;;;;;;;33.95;20.00;;;5.60;88.10;;;;;;4955279;29;20021;-74
2022/04/01 00:51:50;;;;;;;39.58;22.73;;;5.60;88.20;;;;;;4955226;29;20058;-71
2022/04/01 00:54:17;;;;;;;43.33;23.73;;;5.60;88.00;;;;;;4955204;29;20026;-71
2022/04/01 00:56:43;;;;;;;38.83;23.02;;;5.50;88.60;;;;;;4955106;29;20103;-70
2022/04/01 00:59:09;;;;;;;40.22;23.38;;;5.50;88.40;;;;;;4937841;29;20110;-70
2022/04/01 01:01:37;;;;;;;38.92;22.48;;;5.50;88.50;;;;;;4955074;29;20098;-71
2022/04/01 01:04:08;;;;;;;41.05;22.48;;;5.50;88.00;;;;;;4954967;29;20432;-70
2022/04/01 01:06:39;;;;;;;43.10;23.58;;;5.60;87.90;;;;;;4955029;29;20035;-70
2022/04/01 01:09:05;;;;;;;36.85;21.42;;;5.50;87.60;;;;;;4954724;28;20027;-71
2022/04/01 01:11:32;;;;;;;36.92;20.58;;;5.60;87.90;;;;;;4954813;29;20081;-71
2022/04/01 01:13:59;;;;;;;37.03;22.05;;;5.60;87.80;;;;;;4954934;29;20476;-71
2022/04/01 01:16:25;;;;;;;40.15;21.13;;;5.60;87.40;;;;;;4954630;29;20055;-70
2022/04/01 01:19:08;;;;;;;37.28;20.70;;;5.60;87.40;;;;;;4954810;29;20031;-73
2022/04/01 01:21:34;;;;;;;35.08;20.92;;;5.70;87.20;;;;;;4954662;29;20038;-71
2022/04/01 01:24:03;;;;;;;34.42;19.95;;;5.70;87.30;;;;;;4954892;29;20484;-71
2022/04/01 01:26:29;;;;;;;33.05;19.25;;;5.70;87.50;;;;;;4921718;29;20023;-72
2022/04/01 01:28:56;;;;;;;27.92;17.65;;;5.70;87.10;;;;;;4954676;29;20059;-71
2022/04/01 01:31:23;;;;;;;29.05;16.70;;;5.70;86.90;;;;;;4954620;29;20118;-73
2022/04/01 01:33:50;;;;;;;26.65;16.15;;;5.70;86.70;;;;;;4954683;29;20098;-71
2022/04/01 01:36:16;;;;;;;29.60;16.77;;;5.70;86.40;;;;;;4954667;29;20039;-72
2022/04/01 01:38:42;;;;;;;28.05;16.10;;;5.70;86.20;;;;;;4954441;29;20593;-72
2022/04/01 01:41:07;;;;;;;27.35;15.82;;;5.70;86.30;;;;;;4954902;29;20047;-70
2022/04/01 01:43:33;;;;;;;26.83;15.40;;;5.70;86.30;;;;;;4955025;29;20114;-70
2022/04/01 01:45:59;;;;;;;28.17;16.55;;;5.70;86.40;;;;;;4954693;29;20027;-70
2022/04/01 01:48:24;;;;;;;30.17;18.05;;;5.70;86.80;;;;;;4937277;29;20459;-69
2022/04/01 01:56:18;;;;;;;31.80;19.20;;;5.40;87.70;;;;;;4954928;29;20030;-69
2022/04/01 01:58:44;;;;;;;34.85;19.60;;;5.30;88.40;;;;;;4954601;29;20052;-69
2022/04/01 02:01:10;;;;;;;34.15;18.15;;;5.20;89.00;;;;;;4937443;29;20026;-72
2022/04/01 02:03:36;;;;;;;31.77;14.95;;;5.10;89.40;;;;;;4954605;29;20038;-71
2022/04/01 02:06:05;;;;;;;22.20;13.77;;;4.90;88.90;;;;;;4954648;29;20028;-69
2022/04/01 02:08:31;;;;;;;26.10;14.52;;;4.80;88.80;;;;;;4957095;29;20051;-70
2022/04/01 02:10:57;;;;;;;23.52;14.77;;;4.70;89.40;;;;;;4943315;29;20034;-70
2022/04/01 02:13:23;;;;;;;23.02;13.73;;;4.70;89.40;;;;;;4954713;29;20035;-69
2022/04/01 02:15:49;;;;;;;24.60;14.60;;;4.70;89.40;;;;;;4954441;29;20050;-70
2022/04/01 02:18:15;;;;;;;26.73;14.32;;;4.70;89.50;;;;;;4954420;29;20036;-70
2022/04/01 02:20:41;;;;;;;22.70;13.38;;;4.70;89.60;;;;;;4956805;28;20019;-71
2022/04/01 02:23:07;;;;;;;21.23;13.05;;;4.70;89.60;;;;;;4958251;29;20468;-72
2022/04/01 02:25:33;;;;;;;21.80;13.68;;;4.70;89.80;;;;;;4958043;29;20035;-70
2022/04/01 02:27:58;;;;;;;23.13;14.43;;;4.70;89.80;;;;;;4958058;29;20030;-70
2022/04/01 02:30:24;;;;;;;24.58;14.43;;;4.80;90.10;;;;;;4957974;29;20441;-73
2022/04/01 02:32:50;;;;;;;23.95;13.40;;;4.80;90.00;;;;;;4957972;29;20031;-71
2022/04/01 02:35:15;;;;;;;22.88;14.02;;;4.90;89.90;;;;;;4958033;29;20387;-73
2022/04/01 02:37:41;;;;;;;24.00;13.10;;;4.80;89.20;;;;;;4957763;29;20043;-73
2022/04/01 02:40:07;;;;;;;24.30;13.70;;;4.70;89.90;;;;;;4958269;29;20079;-70
2022/04/01 02:42:33;;;;;;;25.70;15.18;;;4.80;89.80;;;;;;4958093;29;20031;-75
2022/04/01 02:44:58;;;;;;;24.48;15.20;;;4.70;90.20;;;;;;4958114;29;20030;-74
2022/04/01 02:47:27;;;;;;;24.80;14.38;;;4.60;90.50;;;;;;4958239;29;20032;-74
2022/04/01 02:49:52;;;;;;;24.00;15.00;;;4.60;90.50;;;;;;4958143;29;20031;-75
2022/04/01 02:52:18;;;;;;;25.70;15.73;;;4.60;90.90;;;;;;4958141;29;20539;-71
2022/04/01 02:54:43;;;;;;;30.50;17.58;;;4.70;90.90;;;;;;4957580;29;20483;-77
2022/04/01 02:57:09;;;;;;;32.30;18.63;;;4.70;90.80;;;;;;4957524;29;20485;-73
2022/04/01 02:59:36;;;;;;;32.67;18.73;;;4.60;90.60;;;;;;4957506;29;20090;-70
2022/04/01 03:02:02;;;;;;;31.17;18.63;;;4.50;90.60;;;;;;4957455;29;20114;-70
2022/04/01 03:04:28;;;;;;;32.17;18.25;;;4.50;91.20;;;;;;4957321;29;20067;-70
2022/04/01 03:06:54;;;;;;;34.30;19.42;;;4.50;91.60;;;;;;4957370;29;20541;-70
2022/04/01 03:09:19;;;;;;;37.70;20.83;;;4.50;91.50;;;;;;4957371;29;20094;-74
2022/04/01 03:11:45;;;;;;;38.55;21.08;;;4.50;91.40;;;;;;4957138;29;20176;-70
2022/04/01 03:14:11;;;;;;;41.22;22.27;;;4.40;91.40;;;;;;4957309;29;20384;-70
2022/04/01 03:16:41;;;;;;;37.63;21.58;;;4.40;91.10;;;;;;4956964;29;20047;-69
2022/04/01 03:19:10;;;;;;;41.67;22.52;;;4.40;91.20;;;;;;4957157;29;20034;-76
2022/04/01 03:21:39;;;;;;;41.20;22.45;;;4.50;91.50;;;;;;4957151;29;20019;-74
2022/04/01 03:24:06;;;;;;;40.50;21.80;;;4.50;91.50;;;;;;4957190;29;20028;-78
2022/04/01 03:26:32;;;;;;;43.05;23.60;;;4.50;91.70;;;;;;4956894;29;20047;-75
2022/04/01 03:29:00;;;;;;;42.83;22.88;;;4.50;91.70;;;;;;4957045;29;20069;-75
2022/04/01 03:31:28;;;;;;;42.33;24.13;;;4.40;91.70;;;;;;4956269;28;20023;-74
2022/04/01 03:33:53;;;;;;;42.55;23.55;;;4.50;91.90;;;;;;4956825;29;20031;-76
2022/04/01 03:36:19;;;;;;;42.95;24.05;;;4.40;91.60;;;;;;4956768;29;20023;-75
2022/04/01 03:38:46;;;;;;;43.47;24.45;;;4.40;91.80;;;;;;4956729;29;20050;-72
2022/04/01 03:41:12;;;;;;;42.85;24.17;;;4.40;91.50;;;;;;4956630;29;20016;-71
2022/04/01 03:43:38;;;;;;;45.65;24.75;;;4.40;91.50;;;;;;4956728;29;20093;-71
2022/04/01 03:46:15;;;;;;;43.83;24.00;;;4.50;91.40;;;;;;4956661;29;20039;-71
2022/04/01 03:48:52;;;;;;;47.63;25.35;;;4.40;91.20;;;;;;4956947;29;20086;-73
2022/04/01 03:51:19;;;;;;;43.13;24.30;;;4.40;91.20;;;;;;4956687;29;20019;-71
2022/04/01 03:53:57;;;;;;;44.90;24.65;;;4.40;91.10;;;;;;4956342;29;20035;-73
2022/04/01 03:56:31;;;;;;;45.33;25.65;;;4.40;91.30;;;;;;4939261;29;20077;-74
2022/04/01 03:59:02;;;;;;;48.20;25.80;;;4.30;91.30;;;;;;4956555;29;20035;-71
2022/04/01 04:01:28;;;;;;;48.03;25.70;;;4.30;91.60;;;;;;4956506;29;20016;-79
2022/04/01 04:03:57;;;;;;;52.28;27.83;;;4.30;91.80;;;;;;4956441;29;20034;-74
2022/04/01 04:06:24;;;;;;;47.15;24.80;;;4.30;92.20;;;;;;4956367;29;20388;-78
2022/04/01 04:08:55;;;;;;;50.85;27.00;;;4.20;91.90;;;;;;4956181;29;20472;-70
2022/04/01 04:11:24;;;;;;;50.20;27.02;;;4.20;92.10;;;;;;4956442;29;20071;-73
2022/04/01 04:13:52;;;;;;;43.28;24.30;;;4.20;92.20;;;;;;4956250;29;20480;-72
2022/04/01 04:16:24;;;;;;;45.55;26.35;;;4.30;92.50;;;;;;4955887;29;20051;-71
2022/04/01 04:18:55;;;;;;;42.50;25.08;;;4.40;91.90;;;;;;4955982;29;20093;-72
2022/04/01 04:21:26;;;;;;;44.95;24.00;;;4.40;91.50;;;;;;4956089;29;20019;-71
2022/04/01 04:23:58;;;;;;;39.53;23.52;;;4.40;91.30;;;;;;4955764;29;20094;-70
2022/04/01 04:26:38;;;;;;;40.60;23.17;;;4.40;91.00;;;;;;4955658;29;20468;-72
2022/04/01 04:29:15;;;;;;;36.65;21.15;;;4.50;90.80;;;;;;4956038;29;20031;-71
2022/04/01 04:31:58;;;;;;;36.88;21.95;;;4.50;90.10;;;;;;4955850;29;20027;-73
2022/04/01 04:34:29;;;;;;;33.58;18.98;;;4.50;90.10;;;;;;4955750;29;20027;-69
2022/04/01 04:36:57;;;;;;;31.80;18.65;;;4.50;89.20;;;;;;4955733;29;20039;-70
2022/04/01 04:39:29;;;;;;;32.78;19.23;;;4.50;89.20;;;;;;4955681;29;20039;-71
2022/04/01 04:41:56;;;;;;;35.45;19.77;;;4.40;88.80;;;;;;4955664;29;20027;-72
2022/04/01 04:44:28;;;;;;;31.17;18.80;;;4.40;89.40;;;;;;4954881;28;20115;-70
2022/04/01 04:46:59;;;;;;;29.88;18.25;;;4.40;89.60;;;;;;4955680;29;20038;-79
2022/04/01 04:49:28;;;;;;;28.75;17.17;;;4.50;89.60;;;;;;4955553;29;20027;-77
2022/04/01 04:51:56;;;;;;;28.45;17.08;;;4.40;89.10;;;;;;4955380;29;20035;-77
2022/04/01 04:54:24;;;;;;;27.63;15.75;;;4.30;89.00;;;;;;4938238;29;20031;-74
2022/04/01 04:56:50;;;;;;;25.00;15.95;;;4.20;89.10;;;;;;4955255;29;20480;-81
2022/04/01 04:59:20;;;;;;;26.17;15.88;;;4.20;89.20;;;;;;4955362;29;20110;-79
2022/04/01 05:01:57;;;;;;;25.88;15.63;;;4.20;89.40;;;;;;4938091;29;20019;-80
2022/04/01 05:04:39;;;;;;;24.75;15.48;;;4.30;89.50;;;;;;4955267;29;20407;-80
2022/04/01 05:07:10;;;;;;;23.23;14.27;;;4.40;89.40;;;;;;4938289;29;20376;-79
2022/04/01 05:09:52;;;;;;;25.27;15.52;;;4.50;89.30;;;;;;4955018;29;20094;-76
2022/04/01 05:12:24;;;;;;;26.45;15.95;;;4.50;88.70;;;;;;4955235;29;20027;-73
2022/04/01 05:15:04;;;;;;;22.23;14.32;;;4.40;88.80;;;;;;4954980;29;20480;-82
2022/04/01 05:17:40;;;;;;;21.65;14.18;;;4.50;88.80;;;;;;4954904;29;20059;-76
2022/04/01 05:20:17;;;;;;;;;;;4.50;88.50;;;;;;4955478;29;20062;-74
2022/04/01 05:23:20;;;;;;;24.27;14.35;;;4.30;87.80;;;;;;4955287;29;20364;-81
2022/04/01 05:25:49;;;;;;;24.52;14.65;;;4.30;88.10;;;;;;4926126;29;20035;-80
2022/04/01 05:28:25;;;;;;;23.77;14.68;;;4.20;88.30;;;;;;4955005;29;20476;-75
2022/04/01 05:31:12;;;;;;;;;;;4.20;88.80;;;;;;4955302;29;20038;-77
2022/04/01 05:34:09;;;;;;;24.48;14.27;;;4.20;88.80;;;;;;4954909;29;19906;-80
2022/04/01 05:36:36;;;;;;;;;;;4.20;88.80;;;;;;4927747;29;20118;-78
2022/04/01 05:39:03;;;;;;;23.08;14.73;;;4.20;88.60;;;;;;4954853;29;19914;-80
2022/04/01 05:41:30;;;;;;;26.05;15.43;;;4.20;88.80;;;;;;4954811;29;20420;-79
2022/04/01 05:43:57;;;;;;;26.42;16.40;;;4.30;88.80;;;;;;4937477;29;20031;-79
2022/04/01 05:46:25;;;;;;;24.25;15.60;;;4.30;88.50;;;;;;4954522;29;20035;-77
2022/04/01 05:48:53;;;;;;;28.67;15.70;;;4.30;88.40;;;;;;4954728;29;20027;-81
2022/04/01 05:51:19;;;;;;;26.98;17.30;;;4.40;88.10;;;;;;4954799;29;20043;-80
2022/04/01 05:53:47;;;;;;;28.50;17.40;;;4.30;87.80;;;;;;4954638;29;20071;-79
2022/04/01 05:56:14;;;;;;;26.27;15.90;;;4.20;88.20;;;;;;4957884;28;20090;-79
2022/04/01 05:58:40;;;;;;;27.33;15.82;;;4.20;88.40;;;;;;4958134;29;20062;-79
2022/04/01 06:01:10;;;;;;;27.88;16.73;;;4.20;88.30;;;;;;4958383;29;20461;-79
2022/04/01 06:03:44;;;;;;;26.67;16.48;;;4.20;88.10;;;;;;4958356;29;20031;-80
2022/04/01 06:06:17;;;;;;;28.83;16.95;;;4.20;87.90;;;;;;4941208;29;20079;-79
2022/04/01 06:09:07;;;;;;;26.10;16.38;;;4.10;88.20;;;;;;4958295;29;20035;-78
2022/04/01 06:11:44;;;;;;;25.33;15.68;;;4.00;88.30;;;;;;4958205;29;20023;-79
2022/04/01 06:14:40;;;;;;;26.35;16.23;;;4.00;88.40;;;;;;4958126;29;20023;-78
2022/04/01 06:17:28;;;;;;;25.35;15.80;;;4.10;88.60;;;;;;4957831;29;20130;-80
2022/04/01 06:19:56;;;;;;;26.27;16.02;;;4.20;88.70;;;;;;4958098;29;20027;-81
2022/04/01 06:22:25;;;;;;;26.52;16.17;;;4.20;88.70;;;;;;4940916;29;20038;-79
2022/04/01 06:25:12;;;;;;;23.95;15.80;;;4.20;88.30;;;;;;4957892;29;20027;-79
2022/04/01 06:27:43;;;;;;;26.73;15.55;;;4.20;88.50;;;;;;4957602;29;20031;-79
2022/04/01 06:30:11;;;;;;;26.88;16.63;;;4.20;88.50;;;;;;4957890;29;20027;-80
2022/04/01 06:32:40;;;;;;;25.58;16.63;;;4.30;88.70;;;;;;4940742;29;20058;-77
2022/04/01 06:35:29;;;;;;;25.88;16.70;;;4.30;88.20;;;;;;4957915;29;20027;-79
2022/04/01 06:38:02;;;;;;;28.02;16.85;;;4.30;88.50;;;;;;4940214;29;20042;-80
2022/04/01 06:40:37;;;;;;;26.88;16.60;;;4.30;88.00;;;;;;4957565;29;20082;-80
2022/04/01 06:43:04;;;;;;;26.35;16.27;;;4.40;88.70;;;;;;4957729;29;20031;-80
2022/04/01 06:45:30;;;;;;;25.88;16.10;;;4.30;87.40;;;;;;4957524;29;20043;-76
2022/04/01 06:47:56;;;;;;;28.33;17.42;;;4.10;86.90;;;;;;4957799;29;20035;-77
2022/04/01 06:50:21;;;;;;;27.60;17.58;;;4.00;87.80;;;;;;4957258;29;20027;-78
2022/04/01 06:52:47;;;;;;;25.08;15.73;;;4.00;88.10;;;;;;4956923;29;20432;-79
2022/04/01 06:55:13;;;;;;;30.58;16.83;;;3.90;87.90;;;;;;4957531;29;20030;-77
2022/04/01 06:57:39;;;;;;;31.23;19.15;;;3.80;88.80;;;;;;4957222;29;20077;-78
2022/04/01 07:00:08;;;;;;;26.52;17.20;;;3.90;89.40;;;;;;4957457;29;20041;-80
2022/04/01 07:02:34;;;;;;;29.60;17.80;;;3.80;88.90;;;;;;4957083;29;20019;-80
2022/04/01 07:05:00;;;;;;;28.77;16.52;;;3.80;89.40;;;;;;4957166;29;20075;-80
2022/04/01 07:07:26;;;;;;;29.67;17.02;;;3.90;89.50;;;;;;4956242;28;20098;-73
2022/04/01 07:09:52;;;;;;;34.25;15.63;;;4.00;88.90;;;;;;4957161;29;20472;-74
2022/04/01 07:12:17;;;;;;;32.83;15.55;;;4.70;96.50;;;;;;4957090;29;20031;-73
2022/04/01 07:14:43;;;;;;;29.95;17.60;;;5.30;97.20;;;;;;4957058;29;20024;-75
2022/04/01 07:17:09;;;;;;;24.73;14.60;;;5.80;94.50;;;;;;4956891;29;20059;-74
2022/04/01 07:19:35;;;;;;;18.65;12.77;;;6.10;89.80;;;;;;4939486;29;20031;-75
2022/04/01 07:22:00;;;;;;;41.58;16.48;;;6.60;86.60;;;;;;4939711;29;20186;-76
2022/04/01 07:24:26;;;;;;;20.20;12.75;;;6.90;81.20;;;;;;4956730;29;20030;-74
2022/04/01 07:26:52;;;;;;;19.85;11.55;;;7.10;79.10;;;;;;4956808;29;20098;-74
2022/04/01 07:29:18;;;;;;;15.68;11.15;;;7.30;78.10;;;;;;4956697;29;20078;-74
2022/04/01 07:34:35;;;;;;;13.90;10.15;;;7.50;75.50;;;;;;4957092;29;20507;-74
2022/04/01 07:37:01;;;;;;;16.20;9.98;;;7.50;75.80;;;;;;4956640;29;20023;-72
2022/04/01 07:39:26;;;;;;;15.88;10.57;;;7.60;74.30;;;;;;4956697;29;20025;-74
2022/04/01 07:41:52;;;;;;;17.60;12.10;;;7.70;74.40;;;;;;4939757;29;20035;-72
2022/04/01 07:44:18;;;;;;;15.30;11.55;;;7.40;71.50;;;;;;4956528;29;20035;-76
2022/04/01 07:46:44;;;;;;;17.25;11.85;;;6.60;73.90;;;;;;4956491;29;20035;-73
2022/04/01 07:49:09;;;;;;;16.83;11.48;;;6.10;76.50;;;;;;4956648;29;20042;-73
2022/04/01 07:51:35;;;;;;;17.75;12.05;;;5.80;78.10;;;;;;4956171;29;20015;-71
2022/04/01 07:54:01;;;;;;;19.33;13.00;;;5.60;79.20;;;;;;4939308;29;20027;-73
2022/04/01 07:56:31;;;;;;;18.30;12.35;;;5.40;80.10;;;;;;4938693;29;20425;-72
2022/04/01 07:58:58;;;;;;;20.88;14.32;;;5.10;81.50;;;;;;4939078;29;20536;-76
2022/04/01 08:01:24;;;;;;;21.02;14.10;;;5.10;82.40;;;;;;4956073;29;20063;-72
2022/04/01 08:03:49;;;;;;;21.60;15.13;;;5.00;82.80;;;;;;4956170;29;20034;-73
2022/04/01 08:06:15;;;;;;;21.27;14.38;;;5.00;83.00;;;;;;4956187;29;20046;-73
2022/04/01 08:08:41;;;;;;;21.60;14.75;;;5.00;82.90;;;;;;4956131;29;20379;-72
2022/04/01 08:11:07;;;;;;;21.58;14.60;;;4.90;83.10;;;;;;4956226;29;20020;-71
2022/04/01 08:13:33;;;;;;;23.08;15.77;;;4.80;83.50;;;;;;4939022;29;20185;-71
2022/04/01 08:16:00;;;;;;;24.90;16.08;;;4.50;84.20;;;;;;4956026;29;20051;-74
2022/04/01 08:18:25;;;;;;;24.77;16.40;;;4.30;84.90;;;;;;4923186;29;20039;-77
2022/04/01 08:20:51;;;;;;;24.73;16.00;;;4.30;85.50;;;;;;4945409;28;20019;-73
2022/04/01 08:23:19;;;;;;;24.80;16.27;;;4.40;85.70;;;;;;4970044;28;20483;-73
2022/04/01 08:25:45;;;;;;;26.48;16.85;;;4.30;85.40;;;;;;4973641;28;20423;-76
2022/04/01 08:28:10;;;;;;;27.80;15.90;;;4.20;85.90;;;;;;4974893;28;20794;-72
2022/04/01 08:30:36;;;;;;;25.70;16.85;;;4.20;86.30;;;;;;4974855;28;20030;-77
2022/04/01 08:33:02;;;;;;;30.05;17.50;;;4.10;86.60;;;;;;4975147;28;20039;-79
2022/04/01 08:35:28;;;;;;;25.67;16.88;;;4.20;86.50;;;;;;4974426;28;20027;-76
2022/04/01 08:37:55;;;;;;;23.98;16.20;;;4.10;86.80;;;;;;4974484;28;20038;-76
2022/04/01 08:40:21;;;;;;;24.45;15.27;;;4.10;86.90;;;;;;4957300;28;20031;-77
2022/04/01 08:42:47;;;;;;;24.55;16.70;;;4.10;86.70;;;;;;4974778;28;20043;-70
2022/04/01 08:45:19;;;;;;;23.30;15.40;;;4.10;86.70;;;;;;4974642;28;20027;-75
2022/04/01 08:47:45;;;;;;;24.45;15.55;;;4.10;86.90;;;;;;4974669;28;20050;-70
2022/04/01 08:50:11;;;;;;;23.88;14.90;;;4.00;86.90;;;;;;4974627;28;20483;-70
2022/04/01 08:52:37;;;;;;;24.63;16.00;;;4.10;86.60;;;;;;4974855;28;20027;-71
2022/04/01 08:55:05;;;;;;;26.38;16.63;;;4.10;85.80;;;;;;4974782;28;20040;-73
2022/04/01 08:57:50;;;;;;;25.10;16.20;;;4.10;86.00;;;;;;4957183;28;20027;-70
2022/04/01 09:00:15;;;;;;;25.73;17.10;;;4.10;86.10;;;;;;4974485;28;20031;-71
2022/04/01 09:02:42;;;;;;;26.33;17.23;;;4.10;86.10;;;;;;4974367;28;20041;-72
2022/04/01 09:05:09;;;;;;;25.50;17.23;;;4.00;86.00;;;;;;4974490;28;20432;-71
2022/04/01 09:07:34;;;;;;;29.73;18.60;;;3.90;86.20;;;;;;4974349;28;20049;-74
2022/04/01 09:10:06;;;;;;;27.30;18.25;;;3.90;86.60;;;;;;4956978;28;20476;-75
2022/04/01 09:12:31;;;;;;;26.33;17.33;;;4.00;86.10;;;;;;4974323;28;20618;-73
2022/04/01 09:14:58;;;;;;;27.20;17.85;;;4.10;86.00;;;;;;4974024;28;20086;-75
2022/04/01 09:17:44;;;;;;;26.70;17.70;;;4.20;85.50;;;;;;4956345;28;20074;-74
2022/04/01 09:20:10;;;;;;;27.13;17.88;;;4.30;84.90;;;;;;4973766;28;20057;-71
2022/04/01 09:22:37;;;;;;;25.45;17.27;;;4.20;84.30;;;;;;4974094;28;20506;-72
2022/04/01 09:25:09;;;;;;;28.70;18.88;;;4.20;84.60;;;;;;4974986;28;20031;-72
2022/04/01 09:27:43;;;;;;;30.13;19.05;;;4.20;85.70;;;;;;4974714;28;20034;-71
2022/04/01 09:30:12;;;;;;;25.43;17.23;;;4.10;86.30;;;;;;4974259;28;20023;-72
2022/04/01 09:32:39;;;;;;;24.38;17.13;;;4.10;85.50;;;;;;4975034;28;20045;-73
2022/04/01 09:35:07;;;;;;;26.38;17.55;;;4.20;85.20;;;;;;4974457;28;20031;-72
2022/04/01 09:37:37;;;;;;;25.40;17.38;;;4.30;84.80;;;;;;4956578;28;20129;-77
2022/04/01 09:40:03;;;;;;;26.20;18.20;;;4.30;84.60;;;;;;4973887;28;20141;-72
2022/04/01 09:42:28;;;;;;;28.33;17.65;;;4.40;84.80;;;;;;4973854;28;20034;-72
2022/04/01 09:44:58;;;;;;;27.83;18.52;;;4.50;85.20;;;;;;4973813;28;20030;-74
2022/04/01 09:47:24;;;;;;;26.25;17.70;;;4.40;84.50;;;;;;4973712;28;20482;-72
2022/04/01 09:49:52;;;;;;;29.67;19.25;;;4.50;84.80;;;;;;4973760;28;20031;-75
2022/04/01 09:52:20;;;;;;;28.15;18.50;;;4.60;84.70;;;;;;4973958;28;20476;-72
2022/04/01 09:54:50;;;;;;;27.17;18.52;;;4.70;84.60;;;;;;4973848;28;20034;-74
2022/04/01 09:57:17;;;;;;;26.98;18.33;;;4.70;84.20;;;;;;4973595;28;20546;-75
2022/04/01 09:59:43;;;;;;;25.92;17.45;;;4.60;84.00;;;;;;4956543;28;20245;-72
2022/04/01 10:02:09;;;;;;;29.50;17.70;;;4.50;85.00;;;;;;4973438;28;20015;-78
2022/04/01 10:04:34;;;;;;;23.73;16.75;;;4.60;84.90;;;;;;4973412;28;20034;-76
2022/04/01 10:07:02;;;;;;;24.70;17.52;;;4.60;84.90;;;;;;4973580;28;20030;-76
2022/04/01 10:09:30;;;;;;;26.17;17.45;;;4.70;84.40;;;;;;4973358;28;20035;-73
2022/04/01 10:12:00;;;;;;;22.25;15.23;;;4.70;84.10;;;;;;4973195;28;20407;-75
2022/04/01 10:14:26;;;;;;;23.08;14.77;;;4.60;84.40;;;;;;4973347;28;20445;-76
2022/04/01 10:16:55;;;;;;;25.42;16.90;;;4.80;84.40;;;;;;4973407;28;20046;-73
2022/04/01 10:19:29;;;;;;;26.85;17.25;;;4.80;84.20;;;;;;4973536;28;20103;-75
2022/04/01 10:21:55;;;;;;;26.33;17.13;;;4.60;84.90;;;;;;4973197;28;20026;-75
2022/04/01 10:24:49;;;;;;;24.15;16.08;;;4.50;84.50;;;;;;4973112;28;20023;-76
2022/04/01 10:27:30;;;;;;;24.85;15.90;;;4.30;84.70;;;;;;4973193;28;20037;-77
2022/04/01 10:29:57;;;;;;;24.50;15.60;;;4.30;85.50;;;;;;4973713;28;20026;-71
2022/04/01 10:32:36;;;;;;;25.92;16.30;;;4.40;85.00;;;;;;4973025;28;20055;-73
2022/04/01 10:35:04;;;;;;;19.70;13.63;;;4.40;85.10;;;;;;4955362;28;20058;-74
2022/04/01 10:37:31;;;;;;;18.27;12.88;;;4.30;84.50;;;;;;4971982;28;20162;-74
2022/04/01 10:40:27;;;;;;;16.85;11.70;;;4.40;84.70;;;;;;4972502;28;20027;-78
2022/04/01 10:42:53;;;;;;;16.63;12.02;;;4.50;85.10;;;;;;4962884;28;20053;-79
2022/04/01 10:45:18;;;;;;;16.73;11.85;;;4.60;84.70;;;;;;4976872;28;20026;-79
2022/04/01 10:53:54;;;;;;;16.48;11.93;;;4.80;83.10;;;;;;4970621;28;20030;-79
2022/04/01 10:56:23;;;;;;;17.42;11.30;;;4.80;82.80;;;;;;4976045;28;20026;-79
2022/04/01 10:59:08;;;;;;;16.73;11.32;;;4.80;82.70;;;;;;4958992;28;20030;-78
2022/04/01 11:01:46;;;;;;;16.02;11.35;;;4.90;82.80;;;;;;4959055;28;20395;-80
2022/04/01 11:04:11;;;;;;;13.85;10.27;;;4.80;82.50;;;;;;4976453;28;20023;-79
2022/04/01 11:07:00;;;;;;;14.82;10.48;;;4.80;82.00;;;;;;4976333;28;20077;-78
2022/04/01 11:09:47;;;;;;;15.57;11.15;;;4.70;82.10;;;;;;4976414;28;20027;-79
2022/04/01 11:12:15;;;;;;;16.92;11.25;;;4.60;82.30;;;;;;4976311;28;20030;-78
2022/04/01 11:15:07;;;;;;;13.65;10.23;;;4.50;83.10;;;;;;4976322;28;20023;-79
2022/04/01 11:17:35;;;;;;;15.52;10.30;;;4.50;82.80;;;;;;4976078;28;20094;-78
2022/04/01 11:20:22;;;;;;;13.70;9.93;;;4.50;83.20;;;;;;4959120;28;20145;-78
2022/04/01 11:22:54;;;;;;;17.08;10.43;;;4.50;83.10;;;;;;4976265;28;20015;-76
2022/04/01 11:25:27;;;;;;;12.93;9.98;;;4.60;83.20;;;;;;4976146;28;20030;-78
2022/04/01 11:28:14;;;;;;;14.20;10.00;;;4.50;83.30;;;;;;4959161;28;20030;-73
2022/04/01 11:30:40;;;;;;;15.93;10.90;;;4.40;82.70;;;;;;4975898;28;20056;-71
2022/04/01 11:33:16;;;;;;;13.27;9.43;;;4.40;83.20;;;;;;4975581;28;20027;-80
2022/04/01 11:35:53;;;;;;;13.00;9.63;;;4.40;83.40;;;;;;4976046;28;20023;-77
2022/04/01 11:38:24;;;;;;;18.25;10.27;;;4.40;83.10;;;;;;4975849;28;20483;-79
2022/04/01 11:40:54;;;;;;;13.32;8.75;;;4.40;83.30;;;;;;4975768;28;20031;-76
2022/04/01 11:43:21;;;;;;;13.05;8.85;;;4.50;83.20;;;;;;4975606;28;20027;-76
2022/04/01 11:45:54;;;;;;;10.77;8.10;;;4.30;83.00;;;;;;4975684;28;20023;-75
2022/04/01 11:48:41;;;;;;;11.35;8.90;;;4.20;83.20;;;;;;4975863;28;20027;-76
2022/04/01 11:51:19;;;;;;;9.75;7.43;;;4.30;83.70;;;;;;4975199;28;20117;-75
2022/04/01 11:53:52;;;;;;;12.35;8.18;;;4.30;83.60;;;;;;4957206;28;20078;-74
2022/04/01 11:56:20;;;;;;;10.95;7.53;;;4.40;82.90;;;;;;4975194;28;20031;-75
2022/04/01 11:58:56;;;;;;;12.35;8.88;;;4.40;83.10;;;;;;4975420;28;20038;-76
2022/04/01 12:01:25;;;;;;;16.33;8.52;;;4.40;82.90;;;;;;4957829;28;20054;-76
2022/04/01 12:04:01;;;;;;;13.65;7.70;;;4.40;84.00;;;;;;4975099;28;20057;-77
2022/04/01 12:09:10;;;;;;;10.65;7.63;;;4.80;81.90;;;;;;4975453;28;20070;-72
2022/04/01 12:11:45;;;;;;;9.70;6.80;;;4.90;81.90;;;;;;4974913;28;20031;-76
2022/04/01 12:14:11;;;;;;;7.70;6.03;;;5.00;82.20;;;;;;4975518;28;20019;-73
2022/04/01 12:16:43;;;;;;;7.13;5.95;;;5.10;80.80;;;;;;4974593;28;20058;-71
2022/04/01 12:19:16;;;;;;;7.25;5.63;;;5.00;80.00;;;;;;4974686;28;20030;-71
2022/04/01 12:21:42;;;;;;;9.18;6.85;;;5.10;79.80;;;;;;4974877;28;20033;-70
2022/04/01 12:24:08;;;;;;;8.38;5.57;;;5.20;79.80;;;;;;4974682;28;20027;-72
2022/04/01 12:26:33;;;;;;;7.80;6.10;;;5.20;80.10;;;;;;4974767;28;20106;-70
2022/04/01 12:28:59;;;;;;;8.55;6.65;;;4.90;80.10;;;;;;4974615;28;20451;-74
2022/04/01 12:31:27;;;;;;;9.35;7.25;;;4.60;81.00;;;;;;4974601;28;20026;-71
2022/04/01 12:33:55;;;;;;;7.22;5.90;;;4.50;82.00;;;;;;4974682;28;20038;-73
2022/04/01 12:36:31;;;;;;;6.90;5.75;;;4.50;82.60;;;;;;4974541;28;20195;-71
2022/04/01 12:39:07;;;;;;;7.47;6.05;;;4.50;82.10;;;;;;4974407;28;20043;-72
2022/04/01 12:41:33;;;;;;;8.65;6.40;;;4.50;80.90;;;;;;4974563;28;20106;-72
2022/04/01 12:44:02;;;;;;;6.47;5.32;;;4.40;82.20;;;;;;4974422;28;20037;-72
2022/04/01 12:46:34;;;;;;;6.65;5.28;;;4.30;83.00;;;;;;4956965;28;20493;-71
2022/04/01 12:49:00;;;;;;;8.02;5.85;;;4.30;81.90;;;;;;4956878;28;20384;-71
2022/04/01 12:51:30;;;;;;;9.50;5.95;;;4.20;82.00;;;;;;4974088;28;20479;-71
2022/04/01 12:53:58;;;;;;;9.40;6.05;;;4.10;82.80;;;;;;4955479;28;20031;-72
2022/04/01 12:56:37;;;;;;;6.57;5.55;;;4.10;83.70;;;;;;4974012;28;20031;-72
2022/04/01 12:59:12;;;;;;;8.35;6.20;;;4.20;84.20;;;;;;4974416;28;20491;-72
2022/04/01 13:01:40;;;;;;;6.88;5.28;;;4.20;84.10;;;;;;4974389;28;20551;-72
2022/04/01 13:04:08;;;;;;;9.15;5.72;;;4.10;84.80;;;;;;4973693;28;20034;-72
2022/04/01 13:06:33;;;;;;;6.28;5.20;;;4.00;85.20;;;;;;4974045;28;20121;-73
2022/04/01 13:09:08;;;;;;;6.70;5.60;;;4.00;85.10;;;;;;4976811;28;20026;-76
2022/04/01 13:11:39;;;;;;;5.85;4.57;;;4.00;85.10;;;;;;4974070;28;20037;-73